sensor_id;sensor_type;location;lat;lon;timestamp;P1;durP1;ratioP1;P2;durP2;ratioP2
37945;SDS011;23769;52.478;13.448;2023-03-08T00:01:22;9.25;;;2.63;;
37945;SDS011;23769;52.478;13.448;2023-03-08T00:03:50;6.57;;;1.92;;
37945;SDS011;23769;52.478;13.448;2023-03-08T00:06:19;6.22;;;2.10;;
37945;SDS011;23769;52.478;13.448;2023-03-08T00:08:47;4.97;;;1.80;;
37945;SDS011;23769;52.478;13.448;2023-03-08T00:11:14;6.78;;;2.42;;
37945;SDS011;23769;52.478;13.448;2023-03-08T00:13:41;8.68;;;2.17;;
37945;SDS011;23769;52.478;13.448;2023-03-08T00:16:10;6.05;;;2.13;;
37945;SDS011;23769;52.478;13.448;2023-03-08T00:18:38;7.43;;;2.15;;
37945;SDS011;23769;52.478;13.448;2023-03-08T00:21:08;7.63;;;2.40;;
37945;SDS011;23769;52.478;13.448;2023-03-08T00:23:36;7.43;;;2.50;;
37945;SDS011;23769;52.478;13.448;2023-03-08T00:26:03;8.15;;;2.38;;
37945;SDS011;23769;52.478;13.448;2023-03-08T00:28:31;7.60;;;2.47;;
37945;SDS011;23769;52.478;13.448;2023-03-08T00:30:58;11.25;;;2.78;;
37945;SDS011;23769;52.478;13.448;2023-03-08T00:33:26;11.48;;;2.90;;
37945;SDS011;23769;52.478;13.448;2023-03-08T00:35:55;7.35;;;2.85;;
37945;SDS011;23769;52.478;13.448;2023-03-08T00:38:22;6.18;;;2.50;;
37945;SDS011;23769;52.478;13.448;2023-03-08T00:40:50;10.48;;;3.20;;
37945;SDS011;23769;52.478;13.448;2023-03-08T00:43:17;6.07;;;2.47;;
37945;SDS011;23769;52.478;13.448;2023-03-08T00:45:44;8.13;;;2.70;;
37945;SDS011;23769;52.478;13.448;2023-03-08T00:48:12;10.50;;;3.03;;
37945;SDS011;23769;52.478;13.448;2023-03-08T00:50:39;10.75;;;2.88;;
37945;SDS011;23769;52.478;13.448;2023-03-08T00:53:08;11.45;;;2.88;;
37945;SDS011;23769;52.478;13.448;2023-03-08T00:55:35;11.93;;;3.00;;
37945;SDS011;23769;52.478;13.448;2023-03-08T00:58:02;8.82;;;3.10;;
37945;SDS011;23769;52.478;13.448;2023-03-08T01:00:30;9.52;;;3.70;;
37945;SDS011;23769;52.478;13.448;2023-03-08T01:02:57;9.52;;;3.28;;
37945;SDS011;23769;52.478;13.448;2023-03-08T01:05:24;9.10;;;3.15;;
37945;SDS011;23769;52.478;13.448;2023-03-08T01:07:51;9.57;;;3.08;;
37945;SDS011;23769;52.478;13.448;2023-03-08T01:10:20;8.55;;;2.90;;
37945;SDS011;23769;52.478;13.448;2023-03-08T01:12:47;11.00;;;3.72;;
37945;SDS011;23769;52.478;13.448;2023-03-08T01:15:14;8.55;;;3.30;;
37945;SDS011;23769;52.478;13.448;2023-03-08T01:17:41;10.05;;;3.45;;
37945;SDS011;23769;52.478;13.448;2023-03-08T01:20:09;13.93;;;4.13;;
37945;SDS011;23769;52.478;13.448;2023-03-08T01:22:36;8.13;;;4.30;;
37945;SDS011;23769;52.478;13.448;2023-03-08T01:25:04;11.23;;;3.80;;
37945;SDS011;23769;52.478;13.448;2023-03-08T01:27:32;8.43;;;3.42;;
37945;SDS011;23769;52.478;13.448;2023-03-08T01:30:00;10.85;;;3.88;;
37945;SDS011;23769;52.478;13.448;2023-03-08T01:32:27;7.57;;;3.67;;
37945;SDS011;23769;52.478;13.448;2023-03-08T01:34:55;9.80;;;4.35;;
37945;SDS011;23769;52.478;13.448;2023-03-08T01:37:28;13.57;;;4.38;;
37945;SDS011;23769;52.478;13.448;2023-03-08T01:39:55;11.88;;;3.92;;
37945;SDS011;23769;52.478;13.448;2023-03-08T01:42:22;13.13;;;5.20;;
37945;SDS011;23769;52.478;13.448;2023-03-08T01:44:52;11.95;;;5.18;;
37945;SDS011;23769;52.478;13.448;2023-03-08T01:47:21;12.02;;;4.53;;
37945;SDS011;23769;52.478;13.448;2023-03-08T01:49:48;11.40;;;5.13;;
37945;SDS011;23769;52.478;13.448;2023-03-08T01:52:17;9.45;;;5.10;;
37945;SDS011;23769;52.478;13.448;2023-03-08T01:54:45;17.67;;;5.68;;
37945;SDS011;23769;52.478;13.448;2023-03-08T01:57:14;12.32;;;5.80;;
37945;SDS011;23769;52.478;13.448;2023-03-08T01:59:42;12.93;;;6.07;;
37945;SDS011;23769;52.478;13.448;2023-03-08T02:02:11;12.73;;;6.32;;
37945;SDS011;23769;52.478;13.448;2023-03-08T02:04:39;12.25;;;5.72;;
37945;SDS011;23769;52.478;13.448;2023-03-08T02:07:06;12.73;;;5.28;;
37945;SDS011;23769;52.478;13.448;2023-03-08T02:09:33;12.20;;;5.60;;
37945;SDS011;23769;52.478;13.448;2023-03-08T02:12:01;14.32;;;6.32;;
37945;SDS011;23769;52.478;13.448;2023-03-08T02:14:29;13.23;;;6.45;;
37945;SDS011;23769;52.478;13.448;2023-03-08T02:16:57;14.13;;;6.47;;
37945;SDS011;23769;52.478;13.448;2023-03-08T02:19:26;15.20;;;6.78;;
37945;SDS011;23769;52.478;13.448;2023-03-08T02:21:55;15.32;;;6.53;;
37945;SDS011;23769;52.478;13.448;2023-03-08T02:24:23;21.25;;;7.68;;
37945;SDS011;23769;52.478;13.448;2023-03-08T02:26:51;16.15;;;7.72;;
37945;SDS011;23769;52.478;13.448;2023-03-08T02:29:21;17.63;;;6.82;;
37945;SDS011;23769;52.478;13.448;2023-03-08T02:31:48;14.80;;;6.80;;
37945;SDS011;23769;52.478;13.448;2023-03-08T02:34:16;18.70;;;8.27;;
37945;SDS011;23769;52.478;13.448;2023-03-08T02:36:43;17.05;;;7.72;;
37945;SDS011;23769;52.478;13.448;2023-03-08T02:39:10;15.45;;;8.02;;
37945;SDS011;23769;52.478;13.448;2023-03-08T02:41:39;17.58;;;8.88;;
37945;SDS011;23769;52.478;13.448;2023-03-08T02:44:06;16.50;;;7.78;;
37945;SDS011;23769;52.478;13.448;2023-03-08T02:46:33;17.27;;;8.05;;
37945;SDS011;23769;52.478;13.448;2023-03-08T02:49:00;18.83;;;8.75;;
37945;SDS011;23769;52.478;13.448;2023-03-08T02:51:27;15.32;;;8.10;;
37945;SDS011;23769;52.478;13.448;2023-03-08T02:53:55;19.48;;;9.45;;
37945;SDS011;23769;52.478;13.448;2023-03-08T02:56:22;16.33;;;8.68;;
37945;SDS011;23769;52.478;13.448;2023-03-08T02:58:50;19.48;;;8.98;;
37945;SDS011;23769;52.478;13.448;2023-03-08T03:01:18;19.67;;;9.05;;
37945;SDS011;23769;52.478;13.448;2023-03-08T03:03:45;17.98;;;9.32;;
37945;SDS011;23769;52.478;13.448;2023-03-08T03:06:13;19.95;;;9.00;;
37945;SDS011;23769;52.478;13.448;2023-03-08T03:08:40;27.17;;;9.10;;
37945;SDS011;23769;52.478;13.448;2023-03-08T03:11:11;21.23;;;9.45;;
37945;SDS011;23769;52.478;13.448;2023-03-08T03:13:39;17.75;;;9.82;;
37945;SDS011;23769;52.478;13.448;2023-03-08T03:16:09;20.48;;;10.15;;
37945;SDS011;23769;52.478;13.448;2023-03-08T03:18:36;19.58;;;9.02;;
37945;SDS011;23769;52.478;13.448;2023-03-08T03:21:04;18.40;;;8.50;;
37945;SDS011;23769;52.478;13.448;2023-03-08T03:23:32;20.00;;;8.60;;
37945;SDS011;23769;52.478;13.448;2023-03-08T03:26:02;17.55;;;10.05;;
37945;SDS011;23769;52.478;13.448;2023-03-08T03:28:29;19.50;;;9.43;;
37945;SDS011;23769;52.478;13.448;2023-03-08T03:30:56;17.05;;;9.90;;
37945;SDS011;23769;52.478;13.448;2023-03-08T03:33:25;16.40;;;9.40;;
37945;SDS011;23769;52.478;13.448;2023-03-08T03:35:52;15.80;;;8.90;;
37945;SDS011;23769;52.478;13.448;2023-03-08T03:38:19;17.40;;;8.77;;
37945;SDS011;23769;52.478;13.448;2023-03-08T03:40:47;16.15;;;9.60;;
37945;SDS011;23769;52.478;13.448;2023-03-08T03:43:14;20.50;;;9.80;;
37945;SDS011;23769;52.478;13.448;2023-03-08T03:45:41;19.85;;;10.48;;
37945;SDS011;23769;52.478;13.448;2023-03-08T03:48:08;16.40;;;9.55;;
37945;SDS011;23769;52.478;13.448;2023-03-08T03:50:36;14.23;;;8.68;;
37945;SDS011;23769;52.478;13.448;2023-03-08T03:53:04;15.50;;;9.05;;
37945;SDS011;23769;52.478;13.448;2023-03-08T03:55:31;16.20;;;8.65;;
37945;SDS011;23769;52.478;13.448;2023-03-08T03:57:58;14.40;;;8.75;;
37945;SDS011;23769;52.478;13.448;2023-03-08T04:00:25;14.90;;;8.63;;
37945;SDS011;23769;52.478;13.448;2023-03-08T04:02:52;14.93;;;7.95;;
37945;SDS011;23769;52.478;13.448;2023-03-08T04:05:20;16.60;;;8.95;;
37945;SDS011;23769;52.478;13.448;2023-03-08T04:07:48;15.35;;;8.35;;
37945;SDS011;23769;52.478;13.448;2023-03-08T04:10:16;17.17;;;8.77;;
37945;SDS011;23769;52.478;13.448;2023-03-08T04:12:43;12.63;;;7.88;;
37945;SDS011;23769;52.478;13.448;2023-03-08T04:15:13;13.52;;;7.60;;
37945;SDS011;23769;52.478;13.448;2023-03-08T04:17:41;19.50;;;8.77;;
37945;SDS011;23769;52.478;13.448;2023-03-08T04:20:08;12.20;;;7.45;;
37945;SDS011;23769;52.478;13.448;2023-03-08T04:22:35;13.25;;;7.45;;
37945;SDS011;23769;52.478;13.448;2023-03-08T04:25:05;16.85;;;8.05;;
37945;SDS011;23769;52.478;13.448;2023-03-08T04:27:32;14.57;;;7.90;;
37945;SDS011;23769;52.478;13.448;2023-03-08T04:30:00;12.93;;;7.28;;
37945;SDS011;23769;52.478;13.448;2023-03-08T04:32:27;12.40;;;7.60;;
37945;SDS011;23769;52.478;13.448;2023-03-08T04:34:56;13.82;;;8.50;;
37945;SDS011;23769;52.478;13.448;2023-03-08T04:37:23;16.52;;;8.27;;
37945;SDS011;23769;52.478;13.448;2023-03-08T04:39:51;13.32;;;7.68;;
37945;SDS011;23769;52.478;13.448;2023-03-08T04:42:19;12.40;;;7.88;;
37945;SDS011;23769;52.478;13.448;2023-03-08T04:44:46;11.45;;;6.97;;
37945;SDS011;23769;52.478;13.448;2023-03-08T04:47:13;13.98;;;7.85;;
37945;SDS011;23769;52.478;13.448;2023-03-08T04:49:41;13.23;;;7.13;;
37945;SDS011;23769;52.478;13.448;2023-03-08T04:52:08;14.88;;;8.10;;
37945;SDS011;23769;52.478;13.448;2023-03-08T04:54:35;15.20;;;8.25;;
37945;SDS011;23769;52.478;13.448;2023-03-08T04:57:02;14.88;;;8.38;;
37945;SDS011;23769;52.478;13.448;2023-03-08T04:59:31;11.88;;;8.25;;
37945;SDS011;23769;52.478;13.448;2023-03-08T05:01:58;14.88;;;7.97;;
37945;SDS011;23769;52.478;13.448;2023-03-08T05:04:25;15.50;;;8.02;;
37945;SDS011;23769;52.478;13.448;2023-03-08T05:06:52;16.02;;;8.25;;
37945;SDS011;23769;52.478;13.448;2023-03-08T05:09:20;14.45;;;7.97;;
37945;SDS011;23769;52.478;13.448;2023-03-08T05:11:47;18.02;;;7.88;;
37945;SDS011;23769;52.478;13.448;2023-03-08T05:14:14;15.65;;;8.27;;
37945;SDS011;23769;52.478;13.448;2023-03-08T05:16:43;19.90;;;9.18;;
37945;SDS011;23769;52.478;13.448;2023-03-08T05:19:10;14.75;;;8.57;;
37945;SDS011;23769;52.478;13.448;2023-03-08T05:21:37;15.00;;;7.93;;
37945;SDS011;23769;52.478;13.448;2023-03-08T05:24:05;17.15;;;8.63;;
37945;SDS011;23769;52.478;13.448;2023-03-08T05:26:32;16.67;;;8.77;;
37945;SDS011;23769;52.478;13.448;2023-03-08T05:28:59;17.98;;;8.38;;
37945;SDS011;23769;52.478;13.448;2023-03-08T05:31:27;17.50;;;9.10;;
37945;SDS011;23769;52.478;13.448;2023-03-08T05:33:56;14.05;;;8.48;;
37945;SDS011;23769;52.478;13.448;2023-03-08T05:36:23;14.93;;;8.50;;
37945;SDS011;23769;52.478;13.448;2023-03-08T05:38:51;15.18;;;8.50;;
37945;SDS011;23769;52.478;13.448;2023-03-08T05:41:19;16.30;;;9.43;;
37945;SDS011;23769;52.478;13.448;2023-03-08T05:43:46;22.63;;;9.77;;
37945;SDS011;23769;52.478;13.448;2023-03-08T05:46:14;18.35;;;9.63;;
37945;SDS011;23769;52.478;13.448;2023-03-08T05:48:42;20.67;;;10.60;;
37945;SDS011;23769;52.478;13.448;2023-03-08T05:51:11;19.25;;;10.15;;
37945;SDS011;23769;52.478;13.448;2023-03-08T05:53:38;15.65;;;10.23;;
37945;SDS011;23769;52.478;13.448;2023-03-08T05:56:06;21.90;;;10.77;;
37945;SDS011;23769;52.478;13.448;2023-03-08T05:58:34;19.52;;;10.55;;
37945;SDS011;23769;52.478;13.448;2023-03-08T06:01:07;16.02;;;10.15;;
37945;SDS011;23769;52.478;13.448;2023-03-08T06:03:34;15.90;;;10.50;;
37945;SDS011;23769;52.478;13.448;2023-03-08T06:06:01;20.50;;;10.13;;
37945;SDS011;23769;52.478;13.448;2023-03-08T06:08:30;16.10;;;9.65;;
37945;SDS011;23769;52.478;13.448;2023-03-08T06:10:57;16.20;;;9.57;;
37945;SDS011;23769;52.478;13.448;2023-03-08T06:13:24;20.27;;;10.35;;
37945;SDS011;23769;52.478;13.448;2023-03-08T06:15:52;16.83;;;10.13;;
37945;SDS011;23769;52.478;13.448;2023-03-08T06:18:20;13.93;;;9.20;;
37945;SDS011;23769;52.478;13.448;2023-03-08T06:20:54;14.68;;;9.02;;
37945;SDS011;23769;52.478;13.448;2023-03-08T06:23:21;18.27;;;8.13;;
37945;SDS011;23769;52.478;13.448;2023-03-08T06:25:49;15.48;;;9.05;;
37945;SDS011;23769;52.478;13.448;2023-03-08T06:28:17;14.63;;;8.48;;
37945;SDS011;23769;52.478;13.448;2023-03-08T06:30:45;12.82;;;8.02;;
37945;SDS011;23769;52.478;13.448;2023-03-08T06:33:13;13.57;;;8.52;;
37945;SDS011;23769;52.478;13.448;2023-03-08T06:35:41;15.50;;;7.63;;
37945;SDS011;23769;52.478;13.448;2023-03-08T06:38:08;12.23;;;8.15;;
37945;SDS011;23769;52.478;13.448;2023-03-08T06:40:36;11.25;;;6.85;;
37945;SDS011;23769;52.478;13.448;2023-03-08T06:43:04;14.32;;;8.52;;
37945;SDS011;23769;52.478;13.448;2023-03-08T06:45:31;12.10;;;7.32;;
37945;SDS011;23769;52.478;13.448;2023-03-08T06:47:59;12.63;;;8.02;;
37945;SDS011;23769;52.478;13.448;2023-03-08T06:50:26;10.85;;;7.60;;
37945;SDS011;23769;52.478;13.448;2023-03-08T06:52:53;13.02;;;7.35;;
37945;SDS011;23769;52.478;13.448;2023-03-08T06:55:21;13.05;;;6.75;;
37945;SDS011;23769;52.478;13.448;2023-03-08T06:57:48;13.70;;;8.02;;
37945;SDS011;23769;52.478;13.448;2023-03-08T07:00:17;11.05;;;7.10;;
37945;SDS011;23769;52.478;13.448;2023-03-08T07:02:44;9.88;;;7.07;;
37945;SDS011;23769;52.478;13.448;2023-03-08T07:05:12;12.80;;;7.55;;
37945;SDS011;23769;52.478;13.448;2023-03-08T07:07:40;13.43;;;7.28;;
37945;SDS011;23769;52.478;13.448;2023-03-08T07:10:08;8.55;;;6.22;;
37945;SDS011;23769;52.478;13.448;2023-03-08T07:12:36;8.95;;;6.47;;
37945;SDS011;23769;52.478;13.448;2023-03-08T07:15:07;9.88;;;6.30;;
37945;SDS011;23769;52.478;13.448;2023-03-08T07:17:36;8.00;;;5.72;;
37945;SDS011;23769;52.478;13.448;2023-03-08T07:20:04;8.85;;;6.10;;
37945;SDS011;23769;52.478;13.448;2023-03-08T07:22:31;10.00;;;6.18;;
37945;SDS011;23769;52.478;13.448;2023-03-08T07:24:59;10.27;;;6.70;;
37945;SDS011;23769;52.478;13.448;2023-03-08T07:27:26;10.82;;;7.43;;
37945;SDS011;23769;52.478;13.448;2023-03-08T07:29:53;11.80;;;7.35;;
37945;SDS011;23769;52.478;13.448;2023-03-08T07:32:20;9.23;;;6.45;;
37945;SDS011;23769;52.478;13.448;2023-03-08T07:34:54;10.63;;;6.30;;
37945;SDS011;23769;52.478;13.448;2023-03-08T07:37:21;11.73;;;6.82;;
37945;SDS011;23769;52.478;13.448;2023-03-08T07:39:48;11.82;;;6.80;;
37945;SDS011;23769;52.478;13.448;2023-03-08T07:42:15;10.45;;;6.90;;
37945;SDS011;23769;52.478;13.448;2023-03-08T07:44:43;9.70;;;6.53;;
37945;SDS011;23769;52.478;13.448;2023-03-08T07:47:10;11.77;;;7.10;;
37945;SDS011;23769;52.478;13.448;2023-03-08T07:49:37;9.93;;;6.35;;
37945;SDS011;23769;52.478;13.448;2023-03-08T07:52:06;10.55;;;7.05;;
37945;SDS011;23769;52.478;13.448;2023-03-08T07:54:34;10.50;;;6.63;;
37945;SDS011;23769;52.478;13.448;2023-03-08T07:57:01;9.18;;;6.50;;
37945;SDS011;23769;52.478;13.448;2023-03-08T07:59:28;10.27;;;6.43;;
37945;SDS011;23769;52.478;13.448;2023-03-08T08:01:56;11.35;;;5.90;;
37945;SDS011;23769;52.478;13.448;2023-03-08T08:04:26;11.00;;;7.10;;
37945;SDS011;23769;52.478;13.448;2023-03-08T08:06:53;12.57;;;7.15;;
37945;SDS011;23769;52.478;13.448;2023-03-08T08:09:21;11.48;;;7.75;;
37945;SDS011;23769;52.478;13.448;2023-03-08T08:11:49;10.40;;;7.13;;
37945;SDS011;23769;52.478;13.448;2023-03-08T08:14:16;10.80;;;7.53;;
37945;SDS011;23769;52.478;13.448;2023-03-08T08:16:43;12.73;;;8.32;;
37945;SDS011;23769;52.478;13.448;2023-03-08T08:19:10;10.63;;;7.88;;
37945;SDS011;23769;52.478;13.448;2023-03-08T08:21:38;11.75;;;8.15;;
37945;SDS011;23769;52.478;13.448;2023-03-08T08:24:06;12.80;;;8.02;;
37945;SDS011;23769;52.478;13.448;2023-03-08T08:26:35;9.65;;;7.15;;
37945;SDS011;23769;52.478;13.448;2023-03-08T08:29:02;11.65;;;8.05;;
37945;SDS011;23769;52.478;13.448;2023-03-08T08:31:29;12.63;;;8.57;;
37945;SDS011;23769;52.478;13.448;2023-03-08T08:33:56;10.05;;;7.90;;
37945;SDS011;23769;52.478;13.448;2023-03-08T08:36:24;13.13;;;8.75;;
37945;SDS011;23769;52.478;13.448;2023-03-08T08:38:51;14.88;;;9.30;;
37945;SDS011;23769;52.478;13.448;2023-03-08T08:41:19;13.02;;;7.93;;
37945;SDS011;23769;52.478;13.448;2023-03-08T08:43:48;11.48;;;7.57;;
37945;SDS011;23769;52.478;13.448;2023-03-08T08:46:16;12.23;;;7.55;;
37945;SDS011;23769;52.478;13.448;2023-03-08T08:48:43;9.07;;;6.65;;
37945;SDS011;23769;52.478;13.448;2023-03-08T08:51:11;12.27;;;6.45;;
37945;SDS011;23769;52.478;13.448;2023-03-08T08:53:39;10.52;;;7.57;;
37945;SDS011;23769;52.478;13.448;2023-03-08T08:56:09;10.52;;;6.35;;
37945;SDS011;23769;52.478;13.448;2023-03-08T08:58:36;8.27;;;5.95;;
37945;SDS011;23769;52.478;13.448;2023-03-08T09:01:11;9.27;;;6.05;;
37945;SDS011;23769;52.478;13.448;2023-03-08T09:03:38;8.63;;;5.50;;
37945;SDS011;23769;52.478;13.448;2023-03-08T09:06:05;8.82;;;5.47;;
37945;SDS011;23769;52.478;13.448;2023-03-08T09:08:33;9.00;;;5.07;;
37945;SDS011;23769;52.478;13.448;2023-03-08T09:11:04;7.35;;;4.95;;
37945;SDS011;23769;52.478;13.448;2023-03-08T09:13:31;8.70;;;5.20;;
37945;SDS011;23769;52.478;13.448;2023-03-08T09:15:58;9.10;;;5.40;;
37945;SDS011;23769;52.478;13.448;2023-03-08T09:18:27;9.00;;;5.10;;
37945;SDS011;23769;52.478;13.448;2023-03-08T09:20:54;6.80;;;4.22;;
37945;SDS011;23769;52.478;13.448;2023-03-08T09:23:21;6.47;;;3.78;;
37945;SDS011;23769;52.478;13.448;2023-03-08T09:25:55;7.53;;;4.47;;
37945;SDS011;23769;52.478;13.448;2023-03-08T09:28:22;7.80;;;4.63;;
37945;SDS011;23769;52.478;13.448;2023-03-08T09:30:50;8.38;;;4.20;;
37945;SDS011;23769;52.478;13.448;2023-03-08T09:33:17;9.70;;;4.72;;
37945;SDS011;23769;52.478;13.448;2023-03-08T09:35:54;7.30;;;4.38;;
37945;SDS011;23769;52.478;13.448;2023-03-08T09:38:21;6.05;;;4.47;;
37945;SDS011;23769;52.478;13.448;2023-03-08T09:40:52;8.88;;;3.83;;
37945;SDS011;23769;52.478;13.448;2023-03-08T09:45:50;8.77;;;4.07;;
37945;SDS011;23769;52.478;13.448;2023-03-08T09:48:18;4.88;;;3.67;;
37945;SDS011;23769;52.478;13.448;2023-03-08T09:50:48;8.52;;;4.10;;
37945;SDS011;23769;52.478;13.448;2023-03-08T09:53:19;11.02;;;4.50;;
37945;SDS011;23769;52.478;13.448;2023-03-08T09:55:49;14.70;;;5.90;;
37945;SDS011;23769;52.478;13.448;2023-03-08T09:58:27;8.23;;;4.22;;
37945;SDS011;23769;52.478;13.448;2023-03-08T10:00:58;8.27;;;3.90;;
37945;SDS011;23769;52.478;13.448;2023-03-08T10:03:33;7.78;;;4.15;;
37945;SDS011;23769;52.478;13.448;2023-03-08T10:06:05;8.32;;;3.80;;
37945;SDS011;23769;52.478;13.448;2023-03-08T10:08:39;7.35;;;3.20;;
37945;SDS011;23769;52.478;13.448;2023-03-08T10:11:12;13.95;;;4.50;;
37945;SDS011;23769;52.478;13.448;2023-03-08T10:13:42;6.78;;;3.78;;
37945;SDS011;23769;52.478;13.448;2023-03-08T10:16:14;11.02;;;5.20;;
37945;SDS011;23769;52.478;13.448;2023-03-08T10:18:44;6.85;;;4.05;;
37945;SDS011;23769;52.478;13.448;2023-03-08T10:21:14;7.63;;;3.88;;
37945;SDS011;23769;52.478;13.448;2023-03-08T10:23:45;5.88;;;3.42;;
37945;SDS011;23769;52.478;13.448;2023-03-08T10:26:12;7.47;;;4.10;;
37945;SDS011;23769;52.478;13.448;2023-03-08T10:28:41;5.95;;;3.45;;
37945;SDS011;23769;52.478;13.448;2023-03-08T10:31:15;8.15;;;3.53;;
37945;SDS011;23769;52.478;13.448;2023-03-08T10:33:44;11.13;;;4.40;;
37945;SDS011;23769;52.478;13.448;2023-03-08T10:36:16;10.40;;;3.78;;
37945;SDS011;23769;52.478;13.448;2023-03-08T10:38:54;7.07;;;4.00;;
37945;SDS011;23769;52.478;13.448;2023-03-08T10:41:21;17.33;;;4.43;;
37945;SDS011;23769;52.478;13.448;2023-03-08T10:43:50;9.25;;;3.75;;
37945;SDS011;23769;52.478;13.448;2023-03-08T10:46:18;6.35;;;3.13;;
37945;SDS011;23769;52.478;13.448;2023-03-08T10:48:49;6.28;;;3.88;;
37945;SDS011;23769;52.478;13.448;2023-03-08T10:51:16;12.13;;;4.68;;
37945;SDS011;23769;52.478;13.448;2023-03-08T10:53:52;9.55;;;3.95;;
37945;SDS011;23769;52.478;13.448;2023-03-08T10:56:21;7.10;;;3.20;;
37945;SDS011;23769;52.478;13.448;2023-03-08T10:58:49;6.65;;;3.17;;
37945;SDS011;23769;52.478;13.448;2023-03-08T11:01:23;5.75;;;3.17;;
37945;SDS011;23769;52.478;13.448;2023-03-08T11:03:57;4.72;;;2.95;;
37945;SDS011;23769;52.478;13.448;2023-03-08T11:06:25;7.95;;;3.63;;
37945;SDS011;23769;52.478;13.448;2023-03-08T11:08:54;4.22;;;2.92;;
37945;SDS011;23769;52.478;13.448;2023-03-08T11:11:21;4.65;;;2.83;;
37945;SDS011;23769;52.478;13.448;2023-03-08T11:13:49;6.25;;;2.45;;
37945;SDS011;23769;52.478;13.448;2023-03-08T11:16:21;5.05;;;2.95;;
37945;SDS011;23769;52.478;13.448;2023-03-08T11:18:54;3.85;;;2.53;;
37945;SDS011;23769;52.478;13.448;2023-03-08T11:21:24;4.45;;;2.45;;
37945;SDS011;23769;52.478;13.448;2023-03-08T11:23:55;8.30;;;3.72;;
37945;SDS011;23769;52.478;13.448;2023-03-08T11:26:28;15.40;;;6.15;;
37945;SDS011;23769;52.478;13.448;2023-03-08T11:29:03;6.10;;;3.10;;
37945;SDS011;23769;52.478;13.448;2023-03-08T11:31:33;5.97;;;2.58;;
37945;SDS011;23769;52.478;13.448;2023-03-08T11:34:13;6.22;;;2.40;;
37945;SDS011;23769;52.478;13.448;2023-03-08T11:36:44;5.50;;;2.67;;
37945;SDS011;23769;52.478;13.448;2023-03-08T11:39:20;5.78;;;3.00;;
37945;SDS011;23769;52.478;13.448;2023-03-08T11:41:50;6.75;;;3.00;;
37945;SDS011;23769;52.478;13.448;2023-03-08T11:44:24;10.07;;;3.33;;
37945;SDS011;23769;52.478;13.448;2023-03-08T11:47:02;3.35;;;2.80;;
37945;SDS011;23769;52.478;13.448;2023-03-08T11:49:40;4.78;;;2.95;;
37945;SDS011;23769;52.478;13.448;2023-03-08T11:52:13;6.15;;;3.10;;
37945;SDS011;23769;52.478;13.448;2023-03-08T11:54:48;4.70;;;2.60;;
37945;SDS011;23769;52.478;13.448;2023-03-08T11:57:17;4.10;;;2.80;;
37945;SDS011;23769;52.478;13.448;2023-03-08T11:59:45;4.75;;;2.83;;
37945;SDS011;23769;52.478;13.448;2023-03-08T12:02:15;5.78;;;3.10;;
37945;SDS011;23769;52.478;13.448;2023-03-08T12:04:46;4.45;;;2.83;;
37945;SDS011;23769;52.478;13.448;2023-03-08T12:07:16;10.98;;;6.05;;
37945;SDS011;23769;52.478;13.448;2023-03-08T12:09:50;8.18;;;4.32;;
37945;SDS011;23769;52.478;13.448;2023-03-08T12:12:20;9.05;;;4.00;;
37945;SDS011;23769;52.478;13.448;2023-03-08T12:14:48;7.65;;;2.70;;
37945;SDS011;23769;52.478;13.448;2023-03-08T12:17:19;6.40;;;3.13;;
37945;SDS011;23769;52.478;13.448;2023-03-08T12:19:46;6.78;;;3.40;;
37945;SDS011;23769;52.478;13.448;2023-03-08T12:22:22;8.00;;;3.13;;
37945;SDS011;23769;52.478;13.448;2023-03-08T12:24:54;7.93;;;3.03;;
37945;SDS011;23769;52.478;13.448;2023-03-08T12:27:26;7.20;;;2.70;;
37945;SDS011;23769;52.478;13.448;2023-03-08T12:29:55;6.13;;;3.15;;
37945;SDS011;23769;52.478;13.448;2023-03-08T12:32:23;8.00;;;2.65;;
37945;SDS011;23769;52.478;13.448;2023-03-08T12:34:59;5.28;;;3.22;;
37945;SDS011;23769;52.478;13.448;2023-03-08T12:37:28;6.63;;;2.95;;
37945;SDS011;23769;52.478;13.448;2023-03-08T12:39:58;5.35;;;2.88;;
37945;SDS011;23769;52.478;13.448;2023-03-08T12:42:29;5.85;;;2.90;;
37945;SDS011;23769;52.478;13.448;2023-03-08T12:45:04;6.05;;;3.40;;
37945;SDS011;23769;52.478;13.448;2023-03-08T12:47:31;13.18;;;3.95;;
37945;SDS011;23769;52.478;13.448;2023-03-08T12:50:05;6.40;;;3.03;;
37945;SDS011;23769;52.478;13.448;2023-03-08T12:52:33;6.30;;;3.20;;
37945;SDS011;23769;52.478;13.448;2023-03-08T12:55:02;8.68;;;3.75;;
37945;SDS011;23769;52.478;13.448;2023-03-08T12:57:34;7.18;;;3.53;;
37945;SDS011;23769;52.478;13.448;2023-03-08T13:00:04;7.70;;;4.20;;
37945;SDS011;23769;52.478;13.448;2023-03-08T13:02:34;7.75;;;3.90;;
37945;SDS011;23769;52.478;13.448;2023-03-08T13:07:53;7.18;;;4.32;;
37945;SDS011;23769;52.478;13.448;2023-03-08T13:10:25;5.72;;;3.33;;
37945;SDS011;23769;52.478;13.448;2023-03-08T13:13:00;7.50;;;3.40;;
37945;SDS011;23769;52.478;13.448;2023-03-08T13:15:29;9.38;;;4.90;;
37945;SDS011;23769;52.478;13.448;2023-03-08T13:17:57;5.78;;;4.13;;
37945;SDS011;23769;52.478;13.448;2023-03-08T13:20:28;5.43;;;3.58;;
37945;SDS011;23769;52.478;13.448;2023-03-08T13:23:01;6.28;;;4.32;;
37945;SDS011;23769;52.478;13.448;2023-03-08T13:25:41;4.82;;;3.25;;
37945;SDS011;23769;52.478;13.448;2023-03-08T13:28:10;7.15;;;3.85;;
37945;SDS011;23769;52.478;13.448;2023-03-08T13:30:41;5.95;;;3.58;;
37945;SDS011;23769;52.478;13.448;2023-03-08T13:33:12;6.65;;;4.18;;
37945;SDS011;23769;52.478;13.448;2023-03-08T13:35:39;9.45;;;4.93;;
37945;SDS011;23769;52.478;13.448;2023-03-08T13:38:17;5.43;;;3.83;;
37945;SDS011;23769;52.478;13.448;2023-03-08T13:40:50;8.32;;;4.22;;
37945;SDS011;23769;52.478;13.448;2023-03-08T13:43:19;6.50;;;4.47;;
37945;SDS011;23769;52.478;13.448;2023-03-08T13:45:47;8.52;;;4.43;;
37945;SDS011;23769;52.478;13.448;2023-03-08T13:48:15;10.45;;;5.93;;
37945;SDS011;23769;52.478;13.448;2023-03-08T13:50:44;8.20;;;4.82;;
37945;SDS011;23769;52.478;13.448;2023-03-08T13:53:13;10.32;;;5.80;;
37945;SDS011;23769;52.478;13.448;2023-03-08T13:55:41;11.55;;;6.20;;
37945;SDS011;23769;52.478;13.448;2023-03-08T13:58:14;12.88;;;5.60;;
37945;SDS011;23769;52.478;13.448;2023-03-08T14:00:44;11.20;;;5.30;;
37945;SDS011;23769;52.478;13.448;2023-03-08T14:03:18;7.70;;;5.05;;
37945;SDS011;23769;52.478;13.448;2023-03-08T14:05:45;8.35;;;5.03;;
37945;SDS011;23769;52.478;13.448;2023-03-08T14:08:17;8.07;;;4.75;;
37945;SDS011;23769;52.478;13.448;2023-03-08T14:10:46;7.47;;;4.78;;
37945;SDS011;23769;52.478;13.448;2023-03-08T14:13:16;8.13;;;5.78;;
37945;SDS011;23769;52.478;13.448;2023-03-08T14:15:47;8.45;;;4.95;;
37945;SDS011;23769;52.478;13.448;2023-03-08T14:18:18;9.77;;;5.32;;
37945;SDS011;23769;52.478;13.448;2023-03-08T14:20:57;9.07;;;4.93;;
37945;SDS011;23769;52.478;13.448;2023-03-08T14:23:24;7.95;;;4.82;;
37945;SDS011;23769;52.478;13.448;2023-03-08T14:25:54;11.85;;;6.18;;
37945;SDS011;23769;52.478;13.448;2023-03-08T14:28:36;7.00;;;5.10;;
37945;SDS011;23769;52.478;13.448;2023-03-08T14:33:52;10.52;;;5.55;;
37945;SDS011;23769;52.478;13.448;2023-03-08T14:36:22;10.07;;;5.68;;
37945;SDS011;23769;52.478;13.448;2023-03-08T14:38:50;10.15;;;6.68;;
37945;SDS011;23769;52.478;13.448;2023-03-08T14:41:17;11.57;;;6.63;;
37945;SDS011;23769;52.478;13.448;2023-03-08T14:43:56;11.88;;;6.85;;